Topia, North Carolina
Current Conditions -  °F | °C
As of 12:15 PM on Thursday 30 Oct 2014 (Local Time) from KGEV Reporting Station
Clear Clear  
Wind Chill: 52°   Ceiling: Unl
Heat Index: 52°   Visibility: 10mi
Dew Point: 27°   Wind: 7mph
Humidity: 37%   Direction: 270°W
Pressure: 30.06"   Gusts: NA
Location:  36.4835°N, 81.3122°W
Report Text: KGEV 301615Z AUTO 27006KT 10SM CLR 11/M03 A3006 RMK AO2 T01111030
Loading
Personal Weather Stations






























Interactive Weather Map
Tropical Storm Tracking
New forecast layout! Learn more

10-Day Weather Forecast

Advertisements
Track Severe Weather on mobile